sensor_id;sensor_type;location;lat;lon;timestamp;temperature;humidity
46137;DHT22;31871;49.418;8.752;2022-09-28T00:00:38;10.10;99.90
46137;DHT22;31871;49.418;8.752;2022-09-28T00:03:11;10.10;99.90
46137;DHT22;31871;49.418;8.752;2022-09-28T00:05:37;10.10;99.90
46137;DHT22;31871;49.418;8.752;2022-09-28T00:08:02;10.10;99.90
46137;DHT22;31871;49.418;8.752;2022-09-28T00:10:28;10.10;99.90
46137;DHT22;31871;49.418;8.752;2022-09-28T00:12:54;10.10;99.90
46137;DHT22;31871;49.418;8.752;2022-09-28T00:15:20;10.10;99.90
46137;DHT22;31871;49.418;8.752;2022-09-28T00:17:46;10.10;99.90
46137;DHT22;31871;49.418;8.752;2022-09-28T00:20:12;10.20;99.90
46137;DHT22;31871;49.418;8.752;2022-09-28T00:22:38;10.20;99.90
46137;DHT22;31871;49.418;8.752;2022-09-28T00:25:05;10.10;99.90
46137;DHT22;31871;49.418;8.752;2022-09-28T00:27:31;10.10;99.90
46137;DHT22;31871;49.418;8.752;2022-09-28T00:29:57;10.10;99.90
46137;DHT22;31871;49.418;8.752;2022-09-28T00:32:22;10.10;99.90
46137;DHT22;31871;49.418;8.752;2022-09-28T00:34:50;10.10;99.90
46137;DHT22;31871;49.418;8.752;2022-09-28T00:37:17;10.10;99.90
46137;DHT22;31871;49.418;8.752;2022-09-28T00:39:43;10.10;99.90
46137;DHT22;31871;49.418;8.752;2022-09-28T00:42:28;10.20;99.90
46137;DHT22;31871;49.418;8.752;2022-09-28T00:44:55;10.20;99.90
46137;DHT22;31871;49.418;8.752;2022-09-28T00:50:31;10.30;99.90
46137;DHT22;31871;49.418;8.752;2022-09-28T00:55:38;10.30;99.90
46137;DHT22;31871;49.418;8.752;2022-09-28T00:58:07;10.30;99.90
46137;DHT22;31871;49.418;8.752;2022-09-28T01:00:36;10.40;99.90
46137;DHT22;31871;49.418;8.752;2022-09-28T01:03:05;10.30;99.90
46137;DHT22;31871;49.418;8.752;2022-09-28T01:05:32;10.30;99.90
46137;DHT22;31871;49.418;8.752;2022-09-28T01:08:00;10.30;99.90
46137;DHT22;31871;49.418;8.752;2022-09-28T01:10:28;10.30;99.90
46137;DHT22;31871;49.418;8.752;2022-09-28T01:12:55;10.30;99.90
46137;DHT22;31871;49.418;8.752;2022-09-28T01:15:21;10.30;99.90
46137;DHT22;31871;49.418;8.752;2022-09-28T01:23:29;10.30;99.90
46137;DHT22;31871;49.418;8.752;2022-09-28T01:35:10;10.40;99.90
46137;DHT22;31871;49.418;8.752;2022-09-28T01:37:53;10.40;99.90
46137;DHT22;31871;49.418;8.752;2022-09-28T01:40:21;10.40;99.90
46137;DHT22;31871;49.418;8.752;2022-09-28T01:42:53;10.40;99.90
46137;DHT22;31871;49.418;8.752;2022-09-28T01:45:42;10.50;99.90
46137;DHT22;31871;49.418;8.752;2022-09-28T01:48:12;10.50;99.90
46137;DHT22;31871;49.418;8.752;2022-09-28T01:50:42;10.50;99.90
46137;DHT22;31871;49.418;8.752;2022-09-28T01:53:20;10.60;99.90
46137;DHT22;31871;49.418;8.752;2022-09-28T01:55:56;10.60;99.90
46137;DHT22;31871;49.418;8.752;2022-09-28T01:58:36;10.70;99.90
46137;DHT22;31871;49.418;8.752;2022-09-28T02:01:07;10.80;99.90
46137;DHT22;31871;49.418;8.752;2022-09-28T02:06:52;10.70;99.90
46137;DHT22;31871;49.418;8.752;2022-09-28T02:09:27;10.60;99.90
46137;DHT22;31871;49.418;8.752;2022-09-28T02:12:04;10.60;99.90
46137;DHT22;31871;49.418;8.752;2022-09-28T02:14:33;10.50;99.90
46137;DHT22;31871;49.418;8.752;2022-09-28T02:17:05;10.50;99.90
46137;DHT22;31871;49.418;8.752;2022-09-28T02:19:32;10.50;99.90
46137;DHT22;31871;49.418;8.752;2022-09-28T02:24:54;10.60;99.90
46137;DHT22;31871;49.418;8.752;2022-09-28T02:27:38;10.70;99.90
46137;DHT22;31871;49.418;8.752;2022-09-28T02:30:06;10.80;99.90
46137;DHT22;31871;49.418;8.752;2022-09-28T02:32:35;10.90;99.90
46137;DHT22;31871;49.418;8.752;2022-09-28T02:35:15;10.90;99.90
46137;DHT22;31871;49.418;8.752;2022-09-28T02:37:42;10.80;99.90
46137;DHT22;31871;49.418;8.752;2022-09-28T02:40:16;10.80;99.90
46137;DHT22;31871;49.418;8.752;2022-09-28T02:43:01;10.90;99.90
46137;DHT22;31871;49.418;8.752;2022-09-28T02:54:34;10.90;99.90
46137;DHT22;31871;49.418;8.752;2022-09-28T03:00:07;11.00;99.90
46137;DHT22;31871;49.418;8.752;2022-09-28T03:05:22;11.10;99.90
46137;DHT22;31871;49.418;8.752;2022-09-28T03:10:39;11.10;99.90
46137;DHT22;31871;49.418;8.752;2022-09-28T03:13:08;11.10;99.90
46137;DHT22;31871;49.418;8.752;2022-09-28T03:15:34;11.10;99.90
46137;DHT22;31871;49.418;8.752;2022-09-28T03:18:00;11.10;99.90
46137;DHT22;31871;49.418;8.752;2022-09-28T03:20:27;11.10;99.90
46137;DHT22;31871;49.418;8.752;2022-09-28T03:22:53;11.10;99.90
46137;DHT22;31871;49.418;8.752;2022-09-28T03:25:19;11.10;99.90
46137;DHT22;31871;49.418;8.752;2022-09-28T03:27:45;11.10;99.90
46137;DHT22;31871;49.418;8.752;2022-09-28T03:30:11;10.90;99.90
46137;DHT22;31871;49.418;8.752;2022-09-28T03:32:37;10.90;99.90
46137;DHT22;31871;49.418;8.752;2022-09-28T03:35:05;10.80;99.90
46137;DHT22;31871;49.418;8.752;2022-09-28T03:37:31;10.70;99.90
46137;DHT22;31871;49.418;8.752;2022-09-28T03:39:57;10.70;99.90
46137;DHT22;31871;49.418;8.752;2022-09-28T03:42:23;10.60;99.90
46137;DHT22;31871;49.418;8.752;2022-09-28T03:44:48;10.70;99.90
46137;DHT22;31871;49.418;8.752;2022-09-28T03:47:14;10.70;99.90
46137;DHT22;31871;49.418;8.752;2022-09-28T03:49:41;10.70;99.90
46137;DHT22;31871;49.418;8.752;2022-09-28T03:52:07;10.80;99.90
46137;DHT22;31871;49.418;8.752;2022-09-28T03:54:32;10.80;99.90
46137;DHT22;31871;49.418;8.752;2022-09-28T03:56:58;10.80;99.90
46137;DHT22;31871;49.418;8.752;2022-09-28T03:59:24;10.70;99.90
46137;DHT22;31871;49.418;8.752;2022-09-28T04:01:50;10.80;99.90
46137;DHT22;31871;49.418;8.752;2022-09-28T04:04:16;10.80;99.90
46137;DHT22;31871;49.418;8.752;2022-09-28T04:06:42;10.70;99.90
46137;DHT22;31871;49.418;8.752;2022-09-28T04:09:08;10.70;99.90
46137;DHT22;31871;49.418;8.752;2022-09-28T04:11:33;10.80;99.90
46137;DHT22;31871;49.418;8.752;2022-09-28T04:13:59;10.80;99.90
46137;DHT22;31871;49.418;8.752;2022-09-28T04:16:25;10.70;99.90
46137;DHT22;31871;49.418;8.752;2022-09-28T04:18:51;10.70;99.90
46137;DHT22;31871;49.418;8.752;2022-09-28T04:21:18;10.80;99.90
46137;DHT22;31871;49.418;8.752;2022-09-28T04:23:44;10.70;99.90
46137;DHT22;31871;49.418;8.752;2022-09-28T04:28:44;10.90;99.90
46137;DHT22;31871;49.418;8.752;2022-09-28T04:31:29;10.80;99.90
46137;DHT22;31871;49.418;8.752;2022-09-28T04:33:56;10.90;99.90
46137;DHT22;31871;49.418;8.752;2022-09-28T04:36:22;10.90;99.90
46137;DHT22;31871;49.418;8.752;2022-09-28T04:38:52;10.90;99.90
46137;DHT22;31871;49.418;8.752;2022-09-28T04:41:18;10.90;99.90
46137;DHT22;31871;49.418;8.752;2022-09-28T04:43:46;10.80;99.90
46137;DHT22;31871;49.418;8.752;2022-09-28T04:46:11;10.90;99.90
46137;DHT22;31871;49.418;8.752;2022-09-28T04:48:37;10.90;99.90
46137;DHT22;31871;49.418;8.752;2022-09-28T04:51:03;11.00;99.90
46137;DHT22;31871;49.418;8.752;2022-09-28T04:53:29;10.80;99.90
46137;DHT22;31871;49.418;8.752;2022-09-28T04:56:02;10.90;99.90
46137;DHT22;31871;49.418;8.752;2022-09-28T04:58:29;11.00;99.90
46137;DHT22;31871;49.418;8.752;2022-09-28T05:01:00;10.90;99.90
46137;DHT22;31871;49.418;8.752;2022-09-28T05:03:26;10.90;99.90
46137;DHT22;31871;49.418;8.752;2022-09-28T05:05:52;10.90;99.90
46137;DHT22;31871;49.418;8.752;2022-09-28T05:08:18;10.80;99.90
46137;DHT22;31871;49.418;8.752;2022-09-28T05:10:44;10.90;99.90
46137;DHT22;31871;49.418;8.752;2022-09-28T05:13:11;11.00;99.90
46137;DHT22;31871;49.418;8.752;2022-09-28T05:15:38;10.90;99.90
46137;DHT22;31871;49.418;8.752;2022-09-28T05:18:04;10.80;99.90
46137;DHT22;31871;49.418;8.752;2022-09-28T05:20:30;10.70;99.90
46137;DHT22;31871;49.418;8.752;2022-09-28T05:22:56;10.60;99.90
46137;DHT22;31871;49.418;8.752;2022-09-28T05:25:22;10.60;99.90
46137;DHT22;31871;49.418;8.752;2022-09-28T05:27:48;10.60;99.90
46137;DHT22;31871;49.418;8.752;2022-09-28T05:30:20;10.70;99.90
46137;DHT22;31871;49.418;8.752;2022-09-28T05:32:47;10.80;99.90
46137;DHT22;31871;49.418;8.752;2022-09-28T05:35:13;10.80;99.90
46137;DHT22;31871;49.418;8.752;2022-09-28T05:37:39;10.80;99.90
46137;DHT22;31871;49.418;8.752;2022-09-28T05:40:06;10.80;99.90
46137;DHT22;31871;49.418;8.752;2022-09-28T05:42:32;10.80;99.90
46137;DHT22;31871;49.418;8.752;2022-09-28T05:44:57;10.80;99.90
46137;DHT22;31871;49.418;8.752;2022-09-28T05:47:23;10.70;99.90
46137;DHT22;31871;49.418;8.752;2022-09-28T05:49:50;10.70;99.90
46137;DHT22;31871;49.418;8.752;2022-09-28T05:52:16;10.70;99.90
46137;DHT22;31871;49.418;8.752;2022-09-28T05:54:41;10.80;99.90
46137;DHT22;31871;49.418;8.752;2022-09-28T05:57:07;10.90;99.90
46137;DHT22;31871;49.418;8.752;2022-09-28T05:59:32;10.90;99.90
46137;DHT22;31871;49.418;8.752;2022-09-28T06:01:59;10.80;99.90
46137;DHT22;31871;49.418;8.752;2022-09-28T06:04:25;10.80;99.90
46137;DHT22;31871;49.418;8.752;2022-09-28T06:06:51;10.90;99.90
46137;DHT22;31871;49.418;8.752;2022-09-28T06:09:16;10.90;99.90
46137;DHT22;31871;49.418;8.752;2022-09-28T06:11:42;10.90;99.90
46137;DHT22;31871;49.418;8.752;2022-09-28T06:14:07;10.90;99.90
46137;DHT22;31871;49.418;8.752;2022-09-28T06:16:33;10.90;99.90
46137;DHT22;31871;49.418;8.752;2022-09-28T06:19:00;10.80;99.90
46137;DHT22;31871;49.418;8.752;2022-09-28T06:21:25;10.80;99.90
46137;DHT22;31871;49.418;8.752;2022-09-28T06:23:51;10.70;99.90
46137;DHT22;31871;49.418;8.752;2022-09-28T06:26:16;10.80;99.90
46137;DHT22;31871;49.418;8.752;2022-09-28T06:28:42;10.80;99.90
46137;DHT22;31871;49.418;8.752;2022-09-28T06:31:08;10.80;99.90
46137;DHT22;31871;49.418;8.752;2022-09-28T06:33:33;10.80;99.90
46137;DHT22;31871;49.418;8.752;2022-09-28T06:36:00;10.80;99.90
46137;DHT22;31871;49.418;8.752;2022-09-28T06:38:25;10.80;99.90
46137;DHT22;31871;49.418;8.752;2022-09-28T06:40:51;10.90;99.90
46137;DHT22;31871;49.418;8.752;2022-09-28T06:43:17;10.80;99.90
46137;DHT22;31871;49.418;8.752;2022-09-28T06:45:49;10.90;99.90
46137;DHT22;31871;49.418;8.752;2022-09-28T06:48:16;10.90;99.90
46137;DHT22;31871;49.418;8.752;2022-09-28T06:50:42;10.80;99.90
46137;DHT22;31871;49.418;8.752;2022-09-28T06:53:11;10.80;99.90
46137;DHT22;31871;49.418;8.752;2022-09-28T06:55:42;10.80;99.90
46137;DHT22;31871;49.418;8.752;2022-09-28T06:58:13;10.80;99.90
46137;DHT22;31871;49.418;8.752;2022-09-28T07:00:40;10.80;99.90
46137;DHT22;31871;49.418;8.752;2022-09-28T07:03:09;10.90;99.90
46137;DHT22;31871;49.418;8.752;2022-09-28T07:05:36;10.90;99.90
46137;DHT22;31871;49.418;8.752;2022-09-28T07:08:05;10.90;99.90
46137;DHT22;31871;49.418;8.752;2022-09-28T07:10:31;10.90;99.90
46137;DHT22;31871;49.418;8.752;2022-09-28T07:13:00;10.90;99.90
46137;DHT22;31871;49.418;8.752;2022-09-28T07:15:30;10.90;99.90
46137;DHT22;31871;49.418;8.752;2022-09-28T07:17:57;10.80;99.90
46137;DHT22;31871;49.418;8.752;2022-09-28T07:20:23;10.90;99.90
46137;DHT22;31871;49.418;8.752;2022-09-28T07:22:56;11.00;99.90
46137;DHT22;31871;49.418;8.752;2022-09-28T07:25:24;11.10;99.90
46137;DHT22;31871;49.418;8.752;2022-09-28T07:27:50;11.00;99.90
46137;DHT22;31871;49.418;8.752;2022-09-28T07:30:16;10.90;99.90
46137;DHT22;31871;49.418;8.752;2022-09-28T07:32:43;10.80;99.90
46137;DHT22;31871;49.418;8.752;2022-09-28T07:35:09;10.80;99.90
46137;DHT22;31871;49.418;8.752;2022-09-28T07:37:38;10.90;99.90
46137;DHT22;31871;49.418;8.752;2022-09-28T07:40:05;11.10;99.90
46137;DHT22;31871;49.418;8.752;2022-09-28T07:42:49;11.10;99.90
46137;DHT22;31871;49.418;8.752;2022-09-28T07:45:15;11.00;99.90
46137;DHT22;31871;49.418;8.752;2022-09-28T07:47:41;11.00;99.90
46137;DHT22;31871;49.418;8.752;2022-09-28T07:50:07;11.10;99.90
46137;DHT22;31871;49.418;8.752;2022-09-28T07:52:32;11.30;99.90
46137;DHT22;31871;49.418;8.752;2022-09-28T07:55:00;11.30;99.90
46137;DHT22;31871;49.418;8.752;2022-09-28T07:57:26;11.20;99.90
46137;DHT22;31871;49.418;8.752;2022-09-28T07:59:52;11.10;99.90
46137;DHT22;31871;49.418;8.752;2022-09-28T08:02:19;11.00;99.90
46137;DHT22;31871;49.418;8.752;2022-09-28T08:04:48;11.30;99.90
46137;DHT22;31871;49.418;8.752;2022-09-28T08:07:15;11.50;99.90
46137;DHT22;31871;49.418;8.752;2022-09-28T08:09:42;11.60;99.90
46137;DHT22;31871;49.418;8.752;2022-09-28T08:12:08;11.80;99.90
46137;DHT22;31871;49.418;8.752;2022-09-28T08:14:34;12.10;99.90
46137;DHT22;31871;49.418;8.752;2022-09-28T08:17:00;12.20;99.90
46137;DHT22;31871;49.418;8.752;2022-09-28T08:19:26;12.20;99.90
46137;DHT22;31871;49.418;8.752;2022-09-28T08:22:12;12.40;99.90
46137;DHT22;31871;49.418;8.752;2022-09-28T08:24:38;12.40;99.90
46137;DHT22;31871;49.418;8.752;2022-09-28T08:27:03;12.30;99.90
46137;DHT22;31871;49.418;8.752;2022-09-28T08:29:29;12.20;99.90
46137;DHT22;31871;49.418;8.752;2022-09-28T08:31:56;12.10;99.90
46137;DHT22;31871;49.418;8.752;2022-09-28T08:34:24;12.30;99.90
46137;DHT22;31871;49.418;8.752;2022-09-28T08:36:49;12.20;99.90
46137;DHT22;31871;49.418;8.752;2022-09-28T08:39:15;12.10;99.90
46137;DHT22;31871;49.418;8.752;2022-09-28T08:44:46;12.10;99.90
46137;DHT22;31871;49.418;8.752;2022-09-28T08:47:34;12.20;99.90
46137;DHT22;31871;49.418;8.752;2022-09-28T08:50:25;12.50;99.90
46137;DHT22;31871;49.418;8.752;2022-09-28T08:52:57;12.70;99.90
46137;DHT22;31871;49.418;8.752;2022-09-28T08:55:35;13.20;99.90
46137;DHT22;31871;49.418;8.752;2022-09-28T08:58:16;13.60;99.90
46137;DHT22;31871;49.418;8.752;2022-09-28T09:00:45;13.90;99.90
46137;DHT22;31871;49.418;8.752;2022-09-28T09:03:18;14.00;99.90
46137;DHT22;31871;49.418;8.752;2022-09-28T09:05:54;14.00;99.90
46137;DHT22;31871;49.418;8.752;2022-09-28T09:09:09;13.90;99.90
46137;DHT22;31871;49.418;8.752;2022-09-28T09:14:43;13.90;99.90
46137;DHT22;31871;49.418;8.752;2022-09-28T09:17:48;14.00;99.90
46137;DHT22;31871;49.418;8.752;2022-09-28T09:23:40;14.30;99.90
46137;DHT22;31871;49.418;8.752;2022-09-28T09:26:19;13.90;99.90
46137;DHT22;31871;49.418;8.752;2022-09-28T09:37:37;13.10;99.90
46137;DHT22;31871;49.418;8.752;2022-09-28T09:40:28;13.00;99.90
46137;DHT22;31871;49.418;8.752;2022-09-28T09:49:44;12.80;99.90
46137;DHT22;31871;49.418;8.752;2022-09-28T09:55:23;13.40;99.90
46137;DHT22;31871;49.418;8.752;2022-09-28T09:57:59;13.40;99.90
46137;DHT22;31871;49.418;8.752;2022-09-28T10:00:28;13.40;99.90
46137;DHT22;31871;49.418;8.752;2022-09-28T10:02:56;13.40;99.90
46137;DHT22;31871;49.418;8.752;2022-09-28T10:05:24;13.30;99.90
46137;DHT22;31871;49.418;8.752;2022-09-28T10:07:57;13.30;99.90
46137;DHT22;31871;49.418;8.752;2022-09-28T10:10:29;13.10;99.90
46137;DHT22;31871;49.418;8.752;2022-09-28T10:12:57;13.10;99.90
46137;DHT22;31871;49.418;8.752;2022-09-28T10:15:28;13.10;99.90
46137;DHT22;31871;49.418;8.752;2022-09-28T10:17:55;13.10;99.90
46137;DHT22;31871;49.418;8.752;2022-09-28T10:20:22;13.10;99.90
46137;DHT22;31871;49.418;8.752;2022-09-28T10:22:55;13.10;99.90
46137;DHT22;31871;49.418;8.752;2022-09-28T10:25:21;13.20;99.90
46137;DHT22;31871;49.418;8.752;2022-09-28T10:27:50;13.00;99.90
46137;DHT22;31871;49.418;8.752;2022-09-28T10:30:21;13.00;99.90
46137;DHT22;31871;49.418;8.752;2022-09-28T10:32:50;13.10;99.90
46137;DHT22;31871;49.418;8.752;2022-09-28T10:38:15;13.00;99.90
46137;DHT22;31871;49.418;8.752;2022-09-28T10:40:44;12.90;99.90
46137;DHT22;31871;49.418;8.752;2022-09-28T10:43:24;12.90;99.90
46137;DHT22;31871;49.418;8.752;2022-09-28T10:48:27;13.20;99.90
46137;DHT22;31871;49.418;8.752;2022-09-28T10:51:12;13.00;99.90
46137;DHT22;31871;49.418;8.752;2022-09-28T10:53:38;13.00;99.90
46137;DHT22;31871;49.418;8.752;2022-09-28T10:56:19;13.20;99.90
46137;DHT22;31871;49.418;8.752;2022-09-28T10:58:45;13.70;99.90
46137;DHT22;31871;49.418;8.752;2022-09-28T11:01:16;13.80;99.90
46137;DHT22;31871;49.418;8.752;2022-09-28T11:04:03;13.80;99.90
46137;DHT22;31871;49.418;8.752;2022-09-28T11:06:34;13.60;99.90
46137;DHT22;31871;49.418;8.752;2022-09-28T11:09:04;13.80;99.90
46137;DHT22;31871;49.418;8.752;2022-09-28T11:11:39;13.80;99.90
46137;DHT22;31871;49.418;8.752;2022-09-28T11:14:40;13.90;99.90
46137;DHT22;31871;49.418;8.752;2022-09-28T11:17:37;14.10;99.90
46137;DHT22;31871;49.418;8.752;2022-09-28T11:20:32;14.30;99.90
46137;DHT22;31871;49.418;8.752;2022-09-28T11:23:16;14.40;99.90
46137;DHT22;31871;49.418;8.752;2022-09-28T11:25:42;14.60;99.90
46137;DHT22;31871;49.418;8.752;2022-09-28T11:28:23;14.80;99.90
46137;DHT22;31871;49.418;8.752;2022-09-28T11:30:53;14.90;99.90
46137;DHT22;31871;49.418;8.752;2022-09-28T11:33:35;14.80;99.90
46137;DHT22;31871;49.418;8.752;2022-09-28T11:36:30;14.70;99.90
46137;DHT22;31871;49.418;8.752;2022-09-28T11:39:10;15.00;99.90
46137;DHT22;31871;49.418;8.752;2022-09-28T11:42:07;15.20;99.90
46137;DHT22;31871;49.418;8.752;2022-09-28T11:44:42;15.40;99.90
46137;DHT22;31871;49.418;8.752;2022-09-28T11:50:12;15.90;99.90
46137;DHT22;31871;49.418;8.752;2022-09-28T11:52:40;15.30;99.90
46137;DHT22;31871;49.418;8.752;2022-09-28T11:55:13;14.90;99.90
46137;DHT22;31871;49.418;8.752;2022-09-28T11:57:42;15.10;99.90
46137;DHT22;31871;49.418;8.752;2022-09-28T12:00:17;15.30;99.90
46137;DHT22;31871;49.418;8.752;2022-09-28T12:02:50;15.70;99.90
46137;DHT22;31871;49.418;8.752;2022-09-28T12:08:03;15.90;99.90
46137;DHT22;31871;49.418;8.752;2022-09-28T12:10:39;15.30;99.90
46137;DHT22;31871;49.418;8.752;2022-09-28T12:13:15;14.70;99.90
46137;DHT22;31871;49.418;8.752;2022-09-28T12:15:48;14.80;99.90
46137;DHT22;31871;49.418;8.752;2022-09-28T12:18:25;15.00;99.90
46137;DHT22;31871;49.418;8.752;2022-09-28T12:20:58;15.20;99.90
46137;DHT22;31871;49.418;8.752;2022-09-28T12:23:33;15.20;99.90
46137;DHT22;31871;49.418;8.752;2022-09-28T12:26:27;14.70;99.90
46137;DHT22;31871;49.418;8.752;2022-09-28T12:29:00;14.40;99.90
46137;DHT22;31871;49.418;8.752;2022-09-28T12:31:36;14.40;99.90
46137;DHT22;31871;49.418;8.752;2022-09-28T12:34:04;14.60;99.90
46137;DHT22;31871;49.418;8.752;2022-09-28T12:41:57;14.80;99.90
46137;DHT22;31871;49.418;8.752;2022-09-28T12:50:18;14.40;99.90
46137;DHT22;31871;49.418;8.752;2022-09-28T12:55:41;14.80;99.90
46137;DHT22;31871;49.418;8.752;2022-09-28T13:01:12;14.70;99.90
46137;DHT22;31871;49.418;8.752;2022-09-28T13:06:47;14.80;99.90
46137;DHT22;31871;49.418;8.752;2022-09-28T13:09:19;14.90;99.90
46137;DHT22;31871;49.418;8.752;2022-09-28T13:19:38;14.90;99.90
46137;DHT22;31871;49.418;8.752;2022-09-28T13:25:03;15.40;99.90
46137;DHT22;31871;49.418;8.752;2022-09-28T13:27:38;15.40;99.90
46137;DHT22;31871;49.418;8.752;2022-09-28T13:30:05;15.30;99.90
46137;DHT22;31871;49.418;8.752;2022-09-28T13:32:33;15.30;99.90
46137;DHT22;31871;49.418;8.752;2022-09-28T13:35:00;15.10;99.90
46137;DHT22;31871;49.418;8.752;2022-09-28T13:37:27;14.90;99.90
46137;DHT22;31871;49.418;8.752;2022-09-28T13:45:06;14.80;99.90
46137;DHT22;31871;49.418;8.752;2022-09-28T13:58:34;14.70;99.90
46137;DHT22;31871;49.418;8.752;2022-09-28T14:09:48;14.60;99.90
46137;DHT22;31871;49.418;8.752;2022-09-28T14:14:58;14.70;99.90
46137;DHT22;31871;49.418;8.752;2022-09-28T14:19:59;14.50;99.90
46137;DHT22;31871;49.418;8.752;2022-09-28T14:22:47;14.60;99.90
46137;DHT22;31871;49.418;8.752;2022-09-28T14:25:24;14.80;99.90
46137;DHT22;31871;49.418;8.752;2022-09-28T14:28:11;15.00;99.90
46137;DHT22;31871;49.418;8.752;2022-09-28T14:38:23;14.40;99.90
46137;DHT22;31871;49.418;8.752;2022-09-28T14:54:23;14.70;99.90
46137;DHT22;31871;49.418;8.752;2022-09-28T14:59:26;14.70;99.90
46137;DHT22;31871;49.418;8.752;2022-09-28T15:01:58;14.80;99.90
46137;DHT22;31871;49.418;8.752;2022-09-28T15:04:27;14.80;99.90
46137;DHT22;31871;49.418;8.752;2022-09-28T15:06:53;14.80;99.90
46137;DHT22;31871;49.418;8.752;2022-09-28T15:09:34;14.60;99.90
46137;DHT22;31871;49.418;8.752;2022-09-28T15:14:26;14.60;99.90
46137;DHT22;31871;49.418;8.752;2022-09-28T15:17:06;14.70;99.90
46137;DHT22;31871;49.418;8.752;2022-09-28T15:19:45;15.00;99.90
46137;DHT22;31871;49.418;8.752;2022-09-28T15:22:19;15.00;99.90
46137;DHT22;31871;49.418;8.752;2022-09-28T15:24:54;14.80;99.90
46137;DHT22;31871;49.418;8.752;2022-09-28T15:27:20;14.60;99.90
46137;DHT22;31871;49.418;8.752;2022-09-28T15:32:44;14.40;99.90
46137;DHT22;31871;49.418;8.752;2022-09-28T15:35:18;14.40;99.90
46137;DHT22;31871;49.418;8.752;2022-09-28T15:37:46;14.40;99.90
46137;DHT22;31871;49.418;8.752;2022-09-28T15:40:33;14.30;99.90
46137;DHT22;31871;49.418;8.752;2022-09-28T15:42:59;14.30;99.90
46137;DHT22;31871;49.418;8.752;2022-09-28T15:45:27;14.40;99.90
46137;DHT22;31871;49.418;8.752;2022-09-28T15:48:17;14.40;99.90
46137;DHT22;31871;49.418;8.752;2022-09-28T15:51:03;14.50;99.90
46137;DHT22;31871;49.418;8.752;2022-09-28T15:53:30;14.40;99.90
46137;DHT22;31871;49.418;8.752;2022-09-28T15:56:02;14.40;99.90
46137;DHT22;31871;49.418;8.752;2022-09-28T15:58:33;14.20;99.90
46137;DHT22;31871;49.418;8.752;2022-09-28T16:01:25;14.20;99.90
46137;DHT22;31871;49.418;8.752;2022-09-28T16:03:51;14.10;99.90
46137;DHT22;31871;49.418;8.752;2022-09-28T16:06:17;14.10;99.90
46137;DHT22;31871;49.418;8.752;2022-09-28T16:08:46;14.10;99.90
46137;DHT22;31871;49.418;8.752;2022-09-28T16:11:25;14.00;99.90
46137;DHT22;31871;49.418;8.752;2022-09-28T16:14:03;13.90;99.90
46137;DHT22;31871;49.418;8.752;2022-09-28T16:16:49;13.80;99.90
46137;DHT22;31871;49.418;8.752;2022-09-28T16:21:51;13.80;99.90
46137;DHT22;31871;49.418;8.752;2022-09-28T16:24:35;13.70;99.90
46137;DHT22;31871;49.418;8.752;2022-09-28T16:30:18;13.50;99.90
46137;DHT22;31871;49.418;8.752;2022-09-28T16:32:57;13.50;99.90
46137;DHT22;31871;49.418;8.752;2022-09-28T16:35:47;13.40;99.90
46137;DHT22;31871;49.418;8.752;2022-09-28T16:38:11;13.40;99.90
46137;DHT22;31871;49.418;8.752;2022-09-28T16:40:43;13.30;99.90
46137;DHT22;31871;49.418;8.752;2022-09-28T16:43:21;13.30;99.90
46137;DHT22;31871;49.418;8.752;2022-09-28T16:46:04;13.40;99.90
46137;DHT22;31871;49.418;8.752;2022-09-28T16:48:31;13.50;99.90
46137;DHT22;31871;49.418;8.752;2022-09-28T16:50:58;13.50;99.90
46137;DHT22;31871;49.418;8.752;2022-09-28T16:53:24;13.40;99.90
46137;DHT22;31871;49.418;8.752;2022-09-28T16:56:09;13.10;99.90
46137;DHT22;31871;49.418;8.752;2022-09-28T16:58:35;12.60;99.90
46137;DHT22;31871;49.418;8.752;2022-09-28T17:01:02;12.20;99.90
46137;DHT22;31871;49.418;8.752;2022-09-28T17:03:28;11.90;99.90
46137;DHT22;31871;49.418;8.752;2022-09-28T17:05:54;11.70;99.90
46137;DHT22;31871;49.418;8.752;2022-09-28T17:08:22;11.70;99.90
46137;DHT22;31871;49.418;8.752;2022-09-28T17:10:51;11.70;99.90
46137;DHT22;31871;49.418;8.752;2022-09-28T17:13:19;11.70;99.90
46137;DHT22;31871;49.418;8.752;2022-09-28T17:15:46;11.60;99.90
46137;DHT22;31871;49.418;8.752;2022-09-28T17:18:15;11.70;99.90
46137;DHT22;31871;49.418;8.752;2022-09-28T17:20:43;11.80;99.90
46137;DHT22;31871;49.418;8.752;2022-09-28T17:23:10;11.90;99.90
46137;DHT22;31871;49.418;8.752;2022-09-28T17:25:36;12.00;99.90
46137;DHT22;31871;49.418;8.752;2022-09-28T17:28:02;12.10;99.90
46137;DHT22;31871;49.418;8.752;2022-09-28T17:30:29;12.10;99.90
46137;DHT22;31871;49.418;8.752;2022-09-28T17:32:55;12.20;99.90
46137;DHT22;31871;49.418;8.752;2022-09-28T17:35:21;12.40;99.90
46137;DHT22;31871;49.418;8.752;2022-09-28T17:37:47;12.50;99.90
46137;DHT22;31871;49.418;8.752;2022-09-28T17:40:26;12.50;99.90
46137;DHT22;31871;49.418;8.752;2022-09-28T17:42:53;12.60;99.90
46137;DHT22;31871;49.418;8.752;2022-09-28T17:45:21;12.60;99.90
46137;DHT22;31871;49.418;8.752;2022-09-28T17:47:47;12.50;99.90
46137;DHT22;31871;49.418;8.752;2022-09-28T17:52:46;11.90;99.90
46137;DHT22;31871;49.418;8.752;2022-09-28T17:55:11;11.70;99.90
46137;DHT22;31871;49.418;8.752;2022-09-28T17:57:37;11.50;99.90
46137;DHT22;31871;49.418;8.752;2022-09-28T18:00:03;11.40;99.90
46137;DHT22;31871;49.418;8.752;2022-09-28T18:02:29;11.50;99.90
46137;DHT22;31871;49.418;8.752;2022-09-28T18:04:54;11.60;99.90
46137;DHT22;31871;49.418;8.752;2022-09-28T18:07:20;11.70;99.90
46137;DHT22;31871;49.418;8.752;2022-09-28T18:09:46;11.70;99.90
46137;DHT22;31871;49.418;8.752;2022-09-28T18:12:11;11.80;99.90
46137;DHT22;31871;49.418;8.752;2022-09-28T18:14:37;11.80;99.90
46137;DHT22;31871;49.418;8.752;2022-09-28T18:17:04;11.90;99.90
46137;DHT22;31871;49.418;8.752;2022-09-28T18:19:29;12.00;99.90
46137;DHT22;31871;49.418;8.752;2022-09-28T18:21:55;12.00;99.90
46137;DHT22;31871;49.418;8.752;2022-09-28T18:24:22;12.00;99.90
46137;DHT22;31871;49.418;8.752;2022-09-28T18:26:48;12.00;99.90
46137;DHT22;31871;49.418;8.752;2022-09-28T18:29:16;12.00;99.90
46137;DHT22;31871;49.418;8.752;2022-09-28T18:31:41;12.10;99.90
46137;DHT22;31871;49.418;8.752;2022-09-28T18:34:07;12.10;99.90
46137;DHT22;31871;49.418;8.752;2022-09-28T18:36:33;12.10;99.90
46137;DHT22;31871;49.418;8.752;2022-09-28T18:39:00;12.10;99.90
46137;DHT22;31871;49.418;8.752;2022-09-28T18:41:28;12.10;99.90
46137;DHT22;31871;49.418;8.752;2022-09-28T18:43:54;12.10;99.90
46137;DHT22;31871;49.418;8.752;2022-09-28T18:46:25;12.00;99.90
46137;DHT22;31871;49.418;8.752;2022-09-28T18:48:53;12.00;99.90
46137;DHT22;31871;49.418;8.752;2022-09-28T18:51:18;11.90;99.90
46137;DHT22;31871;49.418;8.752;2022-09-28T18:53:45;11.90;99.90